Time;durP1;ratioP1;P1;durP2;ratioP2;P2;SDS_P1;SDS_P2;PMS_P1;PMS_P2;Temp;Humidity;BMP_temperature;BMP_pressure;BME280_temperature;BME280_humidity;BME280_pressure;Samples;Min_cycle;Max_cycle;Signal;HPM_P1;HPM_P2
2021/01/08 00:01:58;;;;;;;13.35;9.43;;;2.00;99.90;;;;;;5112091;28;20067;-75
2021/01/08 00:04:25;;;;;;;;;;;2.00;99.90;;;;;;5113031;28;20035;-72
2021/01/08 00:06:55;;;;;;;14.20;9.65;;;1.90;99.90;;;;;;5112532;28;19986;-72
2021/01/08 00:09:22;;;;;;;17.70;8.85;;;1.90;99.90;;;;;;5112022;28;20040;-74
2021/01/08 00:11:54;;;;;;;14.45;9.15;;;1.90;99.90;;;;;;5111940;28;20070;-72
2021/01/08 00:14:21;;;;;;;12.38;8.73;;;1.90;99.90;;;;;;5112040;28;20043;-72
2021/01/08 00:16:48;;;;;;;14.93;9.73;;;1.90;99.90;;;;;;5112151;28;20520;-72
2021/01/08 00:19:14;;;;;;;13.75;9.05;;;1.90;99.90;;;;;;5111893;28;20496;-72
2021/01/08 00:21:43;;;;;;;12.65;9.27;;;1.90;99.90;;;;;;5112137;28;20047;-71
2021/01/08 00:24:11;;;;;;;17.42;10.13;;;1.90;99.90;;;;;;5112177;28;20075;-71
2021/01/08 00:26:38;;;;;;;10.13;8.45;;;1.90;99.90;;;;;;5112748;28;20051;-71
2021/01/08 00:29:05;;;;;;;13.50;8.85;;;1.90;99.90;;;;;;5111953;28;20044;-71
2021/01/08 00:31:36;;;;;;;12.65;9.10;;;1.90;99.90;;;;;;5111846;28;20048;-72
2021/01/08 00:34:03;;;;;;;11.48;8.07;;;1.90;99.90;;;;;;5111487;28;20046;-71
2021/01/08 00:36:30;;;;;;;12.95;8.23;;;1.90;99.90;;;;;;5112261;28;20043;-72
2021/01/08 00:38:56;;;;;;;;;;;1.90;99.90;;;;;;5112768;28;20404;-71
2021/01/08 00:41:31;;;;;;;18.13;8.48;;;1.90;99.90;;;;;;5111682;28;20022;-72
2021/01/08 00:43:58;;;;;;;14.38;8.93;;;1.90;99.90;;;;;;5112012;28;20039;-72
2021/01/08 00:46:34;;;;;;;;;;;2.00;99.90;;;;;;5111769;28;20495;-72
2021/01/08 00:49:02;;;;;;;15.32;9.05;;;1.90;99.90;;;;;;5111958;28;20272;-72
2021/01/08 00:51:29;;;;;;;12.63;9.32;;;1.90;99.90;;;;;;5112010;28;20090;-72
2021/01/08 00:53:55;;;;;;;11.57;8.02;;;2.00;99.90;;;;;;5110789;28;20066;-71
2021/01/08 00:56:23;;;;;;;13.18;8.50;;;1.90;99.90;;;;;;5111610;28;20047;-70
2021/01/08 00:58:54;;;;;;;13.93;8.98;;;1.90;99.90;;;;;;5115240;28;20043;-72
2021/01/08 01:01:21;;;;;;;13.68;9.48;;;1.90;99.90;;;;;;5114658;28;20548;-71
2021/01/08 01:03:49;;;;;;;13.75;8.80;;;1.90;99.90;;;;;;5115602;28;20400;-72
2021/01/08 01:06:22;;;;;;;13.63;9.60;;;1.90;99.90;;;;;;5115323;28;20085;-72
2021/01/08 01:08:48;;;;;;;13.85;8.65;;;1.90;99.90;;;;;;5116071;28;20050;-72
2021/01/08 01:11:15;;;;;;;;;;;1.90;99.90;;;;;;5115110;28;20079;-72
2021/01/08 01:13:44;;;;;;;12.23;8.50;;;1.90;99.90;;;;;;5115903;28;20428;-72
2021/01/08 01:16:11;;;;;;;12.80;9.73;;;1.90;99.90;;;;;;5115102;28;20396;-73
2021/01/08 01:18:38;;;;;;;15.18;9.30;;;1.90;99.90;;;;;;5115563;28;20081;-72
2021/01/08 01:21:06;;;;;;;14.38;8.52;;;1.90;99.90;;;;;;5114541;28;20050;-72
2021/01/08 01:23:32;;;;;;;12.35;8.30;;;2.00;99.90;;;;;;5115793;28;20114;-72
2021/01/08 01:25:59;;;;;;;12.00;7.93;;;1.90;99.90;;;;;;5115979;28;20047;-72
2021/01/08 01:28:25;;;;;;;;;;;1.90;99.90;;;;;;5115018;28;20479;-70
2021/01/08 01:30:52;;;;;;;13.18;8.00;;;2.00;99.90;;;;;;5115118;28;19919;-72
2021/01/08 01:33:18;;;;;;;12.50;8.70;;;2.00;99.90;;;;;;5113510;28;20104;-72
2021/01/08 01:35:45;;;;;;;10.05;7.63;;;2.00;99.90;;;;;;5115968;28;20073;-71
2021/01/08 01:38:12;;;;;;;12.98;8.88;;;2.00;99.90;;;;;;5114464;28;20442;-72
2021/01/08 01:40:39;;;;;;;11.30;7.75;;;2.00;99.90;;;;;;5115002;28;20036;-72
2021/01/08 01:43:05;;;;;;;9.00;7.70;;;2.00;99.90;;;;;;5114432;28;20102;-72
2021/01/08 01:45:32;;;;;;;11.15;8.82;;;2.00;99.90;;;;;;5115391;28;20373;-71
2021/01/08 01:47:58;;;;;;;10.35;7.78;;;2.00;99.90;;;;;;5114901;28;20100;-70
2021/01/08 01:50:26;;;;;;;11.68;8.23;;;2.00;99.90;;;;;;5114567;28;20047;-71
2021/01/08 01:52:53;;;;;;;10.38;8.15;;;2.00;99.90;;;;;;5113404;28;20040;-72
2021/01/08 01:55:22;;;;;;;12.10;8.52;;;2.00;99.90;;;;;;5113018;28;20047;-72
2021/01/08 01:57:49;;;;;;;11.90;8.52;;;2.00;99.90;;;;;;5115269;28;20097;-71
2021/01/08 02:00:16;;;;;;;10.30;7.95;;;2.00;99.90;;;;;;5114216;28;20078;-72
2021/01/08 02:02:47;;;;;;;11.50;8.63;;;2.00;99.90;;;;;;5114649;28;20064;-72
2021/01/08 02:05:17;;;;;;;10.45;8.07;;;2.00;99.90;;;;;;5114254;28;20042;-72
2021/01/08 02:07:50;;;;;;;9.10;7.80;;;2.00;99.90;;;;;;5114665;28;20484;-70
2021/01/08 02:10:17;;;;;;;13.23;8.10;;;2.00;99.90;;;;;;5113847;28;20040;-70
2021/01/08 02:12:46;;;;;;;10.10;7.85;;;2.00;99.90;;;;;;5114157;28;20052;-72
2021/01/08 02:15:14;;;;;;;11.73;8.23;;;2.00;99.90;;;;;;5114282;28;20403;-70
2021/01/08 02:17:43;;;;;;;10.68;7.93;;;2.00;99.90;;;;;;5114536;28;20043;-70
2021/01/08 02:20:10;;;;;;;9.77;7.93;;;2.00;99.90;;;;;;5112161;28;20075;-72
2021/01/08 02:22:44;;;;;;;10.70;8.10;;;2.00;99.90;;;;;;5114414;27;20064;-70
2021/01/08 02:25:16;;;;;;;10.27;7.57;;;2.00;99.90;;;;;;5113748;28;20127;-71
2021/01/08 02:28:17;;;;;;;13.70;9.45;;;1.90;99.90;;;;;;5113084;28;20051;-72
2021/01/08 02:30:44;;;;;;;15.45;9.77;;;1.90;99.90;;;;;;5094356;28;20044;-71
2021/01/08 02:33:12;;;;;;;17.98;11.35;;;1.90;99.90;;;;;;5099347;28;20066;-71
2021/01/08 02:35:39;;;;;;;15.35;10.68;;;1.80;99.90;;;;;;5114498;28;20043;-71
2021/01/08 02:38:07;;;;;;;22.98;12.75;;;1.80;99.90;;;;;;5114290;28;20047;-71
2021/01/08 02:40:35;;;;;;;27.23;14.43;;;1.70;99.90;;;;;;5113595;28;20032;-71
2021/01/08 02:43:03;;;;;;;24.35;15.38;;;1.60;99.90;;;;;;5113769;28;20118;-71
2021/01/08 02:45:29;;;;;;;25.35;15.48;;;1.50;99.90;;;;;;5113474;28;20410;-71
2021/01/08 02:47:56;;;;;;;;;;;1.50;99.90;;;;;;5114474;28;20085;-70
2021/01/08 02:50:23;;;;;;;20.00;13.48;;;1.40;99.90;;;;;;5113332;28;19920;-70
2021/01/08 02:52:53;;;;;;;26.75;14.85;;;1.40;99.90;;;;;;5113530;28;20045;-70
2021/01/08 02:55:23;;;;;;;25.20;15.98;;;1.40;99.90;;;;;;5113259;28;20050;-71
2021/01/08 02:57:52;;;;;;;23.20;15.40;;;1.30;99.90;;;;;;5113820;28;20161;-71
2021/01/08 03:00:19;;;;;;;24.48;16.33;;;1.40;99.90;;;;;;5112554;28;20047;-71
2021/01/08 03:02:46;;;;;;;28.42;15.80;;;1.30;99.90;;;;;;5113868;28;20051;-71
2021/01/08 03:05:13;;;;;;;26.52;16.38;;;1.30;99.90;;;;;;5113050;28;20051;-72
2021/01/08 03:07:41;;;;;;;27.98;15.85;;;1.30;99.90;;;;;;5113369;27;20040;-71
2021/01/08 03:10:09;;;;;;;27.52;16.33;;;1.40;99.90;;;;;;5113501;28;20035;-71
2021/01/08 03:12:36;;;;;;;25.52;15.55;;;1.30;99.90;;;;;;5113091;28;20108;-71
2021/01/08 03:15:09;;;;;;;24.70;15.95;;;1.30;99.90;;;;;;5113133;28;20043;-71
2021/01/08 03:17:35;;;;;;;26.73;16.33;;;1.30;99.90;;;;;;5113508;28;20407;-71
2021/01/08 03:20:02;;;;;;;27.80;16.00;;;1.30;99.90;;;;;;5112750;28;20035;-71
2021/01/08 03:22:28;;;;;;;27.00;17.25;;;1.20;99.90;;;;;;5112404;28;20710;-71
2021/01/08 03:24:55;;;;;;;27.77;16.90;;;1.40;99.90;;;;;;5113075;28;20317;-71
2021/01/08 03:27:21;;;;;;;31.38;16.48;;;1.30;99.90;;;;;;5112823;28;20424;-72
2021/01/08 03:29:47;;;;;;;;;;;1.30;99.90;;;;;;5113297;28;20077;-71
2021/01/08 03:32:15;;;;;;;30.45;17.23;;;1.30;99.90;;;;;;5112334;28;19965;-72
2021/01/08 03:34:41;;;;;;;23.77;16.08;;;1.20;99.90;;;;;;5112896;28;20123;-71
2021/01/08 03:37:08;;;;;;;26.23;16.35;;;1.20;99.90;;;;;;5113266;28;20386;-71
2021/01/08 03:39:34;;;;;;;;;;;1.20;99.90;;;;;;5112936;28;20041;-71
2021/01/08 03:42:01;;;;;;;26.63;16.60;;;1.20;99.90;;;;;;5113337;28;19920;-71
2021/01/08 03:44:27;;;;;;;;;;;1.10;99.90;;;;;;5112743;28;20040;-71
2021/01/08 03:46:53;;;;;;;34.50;16.83;;;1.10;99.90;;;;;;5113027;28;19944;-71
2021/01/08 03:49:21;;;;;;;31.08;17.58;;;1.20;99.90;;;;;;5112018;28;20046;-71
2021/01/08 03:51:47;;;;;;;29.15;17.83;;;1.20;99.90;;;;;;5113261;28;20044;-71
2021/01/08 03:54:14;;;;;;;;;;;1.10;99.90;;;;;;5111938;28;20040;-72
2021/01/08 03:56:40;;;;;;;32.45;16.67;;;1.10;99.90;;;;;;5112799;28;20352;-71
2021/01/08 03:59:06;;;;;;;29.50;16.88;;;1.10;99.90;;;;;;5112958;28;20043;-71
2021/01/08 04:01:33;;;;;;;30.80;17.33;;;1.10;99.90;;;;;;5112316;28;20085;-72
2021/01/08 04:04:00;;;;;;;30.85;17.33;;;1.10;99.90;;;;;;5112633;28;20058;-71
2021/01/08 04:06:27;;;;;;;35.08;17.92;;;1.10;99.90;;;;;;5111598;28;20044;-71
2021/01/08 04:08:55;;;;;;;27.50;16.73;;;1.20;99.90;;;;;;5112501;28;20407;-72
2021/01/08 04:11:21;;;;;;;26.73;15.50;;;1.20;99.90;;;;;;5111140;28;20522;-71
2021/01/08 04:13:49;;;;;;;30.63;16.70;;;1.20;99.90;;;;;;5112590;28;20044;-71
2021/01/08 04:16:15;;;;;;;25.30;16.00;;;1.10;99.90;;;;;;5111922;28;20104;-71
2021/01/08 04:18:42;;;;;;;;;;;1.10;99.90;;;;;;5113173;28;20450;-71
2021/01/08 04:21:08;;;;;;;23.85;14.82;;;1.20;99.90;;;;;;5112289;28;20006;-73
2021/01/08 04:23:35;;;;;;;;;;;1.20;99.90;;;;;;5112887;28;20458;-71
2021/01/08 04:26:02;;;;;;;22.80;12.88;;;1.20;99.90;;;;;;5112656;28;19920;-71
2021/01/08 04:28:28;;;;;;;;;;;1.20;99.90;;;;;;5111859;28;20521;-71
2021/01/08 04:30:55;;;;;;;22.33;13.98;;;1.20;99.90;;;;;;5111359;28;19924;-71
2021/01/08 04:33:21;;;;;;;;;;;1.10;99.90;;;;;;5113819;28;20047;-71
2021/01/08 04:35:48;;;;;;;23.95;12.55;;;1.30;99.90;;;;;;5116426;28;19920;-71
2021/01/08 04:38:14;;;;;;;23.63;14.77;;;1.30;99.90;;;;;;5115571;28;20046;-73
2021/01/08 04:40:41;;;;;;;;;;;1.30;99.90;;;;;;5117048;28;20043;-71
2021/01/08 04:43:08;;;;;;;23.52;13.85;;;1.20;99.90;;;;;;5116459;28;19926;-71
2021/01/08 04:45:35;;;;;;;25.95;15.60;;;1.20;99.90;;;;;;5116096;28;20050;-71
2021/01/08 04:48:02;;;;;;;29.15;16.58;;;1.20;99.90;;;;;;5116102;28;20054;-71
2021/01/08 04:50:29;;;;;;;25.13;15.57;;;1.10;99.90;;;;;;5115912;27;20498;-71
2021/01/08 04:52:57;;;;;;;27.98;17.45;;;1.10;99.90;;;;;;5116058;28;20043;-71
2021/01/08 04:55:26;;;;;;;33.75;17.45;;;1.10;99.90;;;;;;5115286;28;20035;-71
2021/01/08 04:57:56;;;;;;;29.63;16.42;;;1.00;99.90;;;;;;5115947;28;20040;-71
2021/01/08 05:00:23;;;;;;;24.60;12.85;;;1.10;99.90;;;;;;5115148;28;20047;-71
2021/01/08 05:02:54;;;;;;;23.15;14.90;;;1.10;99.90;;;;;;5115699;28;20108;-71
2021/01/08 05:05:22;;;;;;;29.77;15.40;;;1.20;99.90;;;;;;5115419;28;20063;-71
2021/01/08 05:07:49;;;;;;;29.33;16.63;;;1.20;99.90;;;;;;5115800;27;20123;-71
2021/01/08 05:10:16;;;;;;;29.75;16.80;;;1.10;99.90;;;;;;5115357;28;20067;-71
2021/01/08 05:12:44;;;;;;;26.88;15.98;;;1.10;99.90;;;;;;5115076;28;20372;-71
2021/01/08 05:15:15;;;;;;;27.83;17.02;;;1.10;99.90;;;;;;5115340;28;20114;-72
2021/01/08 05:17:43;;;;;;;25.20;15.93;;;1.00;99.90;;;;;;5115808;28;20044;-71
2021/01/08 05:20:11;;;;;;;27.40;16.50;;;1.20;99.90;;;;;;5114666;28;20039;-73
2021/01/08 05:22:38;;;;;;;32.75;17.23;;;1.20;99.90;;;;;;5115808;28;20047;-71
2021/01/08 05:25:09;;;;;;;32.45;17.60;;;1.10;99.90;;;;;;5115760;28;20092;-71
2021/01/08 05:27:36;;;;;;;27.35;16.67;;;1.00;99.90;;;;;;5114902;28;20083;-71
2021/01/08 05:30:14;;;;;;;35.30;20.00;;;1.00;99.90;;;;;;5115595;28;20048;-71
2021/01/08 05:32:41;;;;;;;32.05;19.33;;;1.00;99.90;;;;;;5115302;28;20071;-71
2021/01/08 05:35:08;;;;;;;;;;;1.00;99.90;;;;;;5114766;28;20040;-71
2021/01/08 05:37:35;;;;;;;34.83;18.27;;;1.00;99.90;;;;;;5114908;28;19920;-71
2021/01/08 05:40:02;;;;;;;32.72;18.92;;;1.10;99.90;;;;;;5115292;28;20044;-71
2021/01/08 05:42:28;;;;;;;34.03;17.67;;;1.10;99.90;;;;;;5114619;28;20126;-71
2021/01/08 05:44:55;;;;;;;35.50;20.48;;;1.00;99.90;;;;;;5114832;27;20043;-71
2021/01/08 05:47:22;;;;;;;28.70;17.48;;;1.00;99.90;;;;;;5114534;28;20046;-71
2021/01/08 05:49:50;;;;;;;32.13;18.63;;;1.00;99.90;;;;;;5115024;28;20074;-71
2021/01/08 05:52:17;;;;;;;37.28;19.13;;;1.00;99.90;;;;;;5114594;28;20092;-71
2021/01/08 05:54:44;;;;;;;35.42;18.75;;;1.00;99.90;;;;;;5114475;28;20135;-71
2021/01/08 05:57:12;;;;;;;30.35;16.35;;;1.10;99.90;;;;;;5114189;28;20043;-72
2021/01/08 05:59:40;;;;;;;30.42;17.10;;;1.20;99.90;;;;;;5114634;28;20368;-71
2021/01/08 06:02:09;;;;;;;31.15;17.27;;;1.10;99.90;;;;;;5114580;28;20055;-71
2021/01/08 06:04:40;;;;;;;29.83;16.33;;;1.10;99.90;;;;;;5114570;28;20457;-71
2021/01/08 06:07:15;;;;;;;23.70;13.50;;;1.10;99.90;;;;;;5114395;28;20127;-71
2021/01/08 06:09:44;;;;;;;22.40;11.77;;;1.10;99.90;;;;;;5114464;28;20097;-71
2021/01/08 06:12:12;;;;;;;22.65;13.15;;;1.20;99.90;;;;;;5112667;28;20047;-74
2021/01/08 06:14:39;;;;;;;16.00;8.82;;;1.20;99.90;;;;;;5103937;28;20036;-70
2021/01/08 06:17:07;;;;;;;25.17;13.93;;;1.30;99.90;;;;;;5114453;28;20043;-71
2021/01/08 06:19:34;;;;;;;21.75;11.70;;;1.30;99.90;;;;;;5113801;28;20110;-71
2021/01/08 06:22:02;;;;;;;17.00;10.30;;;1.40;99.90;;;;;;5114504;28;20071;-71
2021/01/08 06:24:29;;;;;;;16.10;8.43;;;1.50;99.90;;;;;;5113437;28;20093;-71
2021/01/08 06:26:56;;;;;;;12.93;7.57;;;1.60;99.90;;;;;;5114183;28;20450;-71
2021/01/08 06:29:23;;;;;;;12.80;7.97;;;1.50;99.90;;;;;;5113775;28;20052;-71
2021/01/08 06:31:51;;;;;;;10.82;7.40;;;1.50;99.90;;;;;;5113791;28;20128;-71
2021/01/08 06:34:23;;;;;;;11.70;7.78;;;1.60;99.90;;;;;;5113682;27;20044;-71
2021/01/08 06:37:06;;;;;;;10.18;6.68;;;1.60;99.90;;;;;;5113881;28;20432;-71
2021/01/08 06:39:35;;;;;;;13.02;7.95;;;1.60;99.90;;;;;;5113555;28;20048;-71
2021/01/08 06:42:02;;;;;;;13.07;7.60;;;1.50;99.90;;;;;;5113888;28;20039;-71
2021/01/08 06:44:31;;;;;;;12.30;7.57;;;1.60;99.90;;;;;;5113325;28;20039;-71
2021/01/08 06:46:59;;;;;;;15.10;7.47;;;1.60;99.90;;;;;;5113944;28;20043;-71
2021/01/08 06:49:26;;;;;;;13.52;7.20;;;1.70;99.90;;;;;;5113191;28;20051;-70
2021/01/08 06:51:52;;;;;;;11.35;7.28;;;1.70;99.90;;;;;;5113575;28;20472;-71
2021/01/08 06:54:20;;;;;;;16.17;8.73;;;1.70;99.90;;;;;;5113107;28;20063;-70
2021/01/08 06:56:47;;;;;;;12.60;7.65;;;1.80;99.90;;;;;;5112458;28;20480;-71
2021/01/08 06:59:16;;;;;;;10.38;6.78;;;1.80;99.90;;;;;;5113158;28;20043;-71
2021/01/08 07:01:58;;;;;;;7.82;5.95;;;1.80;99.90;;;;;;5113478;28;20051;-71
2021/01/08 07:04:26;;;;;;;8.45;5.93;;;1.80;99.90;;;;;;5113059;28;20044;-70
2021/01/08 07:06:54;;;;;;;9.48;6.63;;;1.90;99.90;;;;;;5113340;28;20039;-71
2021/01/08 07:09:30;;;;;;;8.65;5.30;;;1.90;99.90;;;;;;5112874;28;20032;-71
2021/01/08 07:11:58;;;;;;;7.00;5.57;;;1.90;99.90;;;;;;5113044;28;20059;-70
2021/01/08 07:14:25;;;;;;;7.07;5.43;;;1.90;99.90;;;;;;5113092;28;20039;-70
2021/01/08 07:16:53;;;;;;;8.05;6.07;;;1.90;99.90;;;;;;5112892;28;20496;-70
2021/01/08 07:19:20;;;;;;;8.57;5.22;;;1.90;99.90;;;;;;5112814;28;20048;-70
2021/01/08 07:21:49;;;;;;;7.10;5.03;;;1.90;99.90;;;;;;5113295;28;20047;-69
2021/01/08 07:24:17;;;;;;;10.65;5.72;;;1.90;99.90;;;;;;5112853;28;20044;-70
2021/01/08 07:26:46;;;;;;;11.60;5.70;;;1.90;99.90;;;;;;5113051;28;20044;-70
2021/01/08 07:29:13;;;;;;;9.40;6.70;;;2.00;99.90;;;;;;5113124;27;20043;-69
2021/01/08 07:31:40;;;;;;;10.52;7.95;;;2.00;99.90;;;;;;5113141;28;20139;-70
2021/01/08 07:34:08;;;;;;;9.48;7.88;;;2.00;99.90;;;;;;5113446;28;20036;-70
2021/01/08 07:36:36;;;;;;;8.98;7.40;;;2.10;99.90;;;;;;5112605;28;20044;-70
2021/01/08 07:39:05;;;;;;;8.85;7.50;;;2.10;99.90;;;;;;5113719;28;20043;-70
2021/01/08 07:41:40;;;;;;;9.15;7.25;;;2.10;99.90;;;;;;5113602;28;20142;-72
2021/01/08 07:44:32;;;;;;;14.68;8.95;;;2.10;99.90;;;;;;5113745;28;20039;-71
2021/01/08 07:47:21;;;;;;;12.52;8.63;;;2.10;99.90;;;;;;5113960;28;20036;-70
2021/01/08 07:50:06;;;;;;;15.95;8.68;;;2.10;99.90;;;;;;5113742;28;20510;-70
2021/01/08 07:52:37;;;;;;;25.83;12.27;;;2.10;99.90;;;;;;5112289;28;20070;-71
2021/01/08 07:55:05;;;;;;;21.08;10.85;;;2.20;99.90;;;;;;5113346;27;20040;-71
2021/01/08 07:58:02;;;;;;;19.77;10.25;;;2.20;99.90;;;;;;5112053;28;20070;-71
2021/01/08 08:00:31;;;;;;;12.85;7.47;;;2.20;99.90;;;;;;5111763;28;20039;-71
2021/01/08 08:02:59;;;;;;;10.85;7.72;;;2.20;99.90;;;;;;5113001;28;20486;-71
2021/01/08 08:05:26;;;;;;;8.07;7.15;;;2.20;99.90;;;;;;5112163;28;20047;-71
2021/01/08 08:07:56;;;;;;;11.35;7.45;;;2.20;99.90;;;;;;5112297;28;20039;-71
2021/01/08 08:10:24;;;;;;;7.93;6.47;;;2.20;99.90;;;;;;5112026;28;20063;-71
2021/01/08 08:12:51;;;;;;;8.15;6.68;;;2.20;99.90;;;;;;5112433;28;20047;-71
2021/01/08 08:15:18;;;;;;;9.18;6.72;;;2.20;99.90;;;;;;5111406;28;20043;-71
2021/01/08 08:17:46;;;;;;;9.20;7.78;;;2.20;99.90;;;;;;5111591;28;20046;-71
2021/01/08 08:20:24;;;;;;;7.18;6.45;;;2.30;99.90;;;;;;5111325;28;20369;-71
2021/01/08 08:22:53;;;;;;;8.27;6.38;;;2.40;99.90;;;;;;5112502;28;20179;-71
2021/01/08 08:25:30;;;;;;;8.38;7.15;;;2.30;99.90;;;;;;5111903;28;20136;-71
2021/01/08 08:27:57;;;;;;;;;;;2.40;99.90;;;;;;5112244;28;20522;-71
2021/01/08 08:30:25;;;;;;;10.38;7.20;;;2.30;99.90;;;;;;5112160;28;20015;-71
2021/01/08 08:32:53;;;;;;;9.73;7.80;;;2.40;99.90;;;;;;5111977;28;20412;-71
2021/01/08 08:35:20;;;;;;;13.30;8.48;;;2.40;99.90;;;;;;5112036;28;20086;-71
2021/01/08 08:37:51;;;;;;;10.98;7.65;;;2.40;99.90;;;;;;5112085;28;20507;-71
2021/01/08 08:40:22;;;;;;;19.20;13.25;;;2.40;99.90;;;;;;5112383;28;20040;-75
2021/01/08 08:42:50;;;;;;;17.13;11.45;;;2.50;99.90;;;;;;5112758;28;20050;-71
2021/01/08 08:45:22;;;;;;;20.80;12.18;;;2.50;99.90;;;;;;5112186;28;20044;-71
2021/01/08 08:47:51;;;;;;;15.80;11.48;;;2.50;99.90;;;;;;5111602;28;20395;-71
2021/01/08 08:50:19;;;;;;;55.75;34.60;;;2.50;99.90;;;;;;5110593;28;20123;-71
2021/01/08 08:52:46;;;;;;;15.70;9.77;;;2.50;99.90;;;;;;5108005;28;20047;-72
2021/01/08 08:55:29;;;;;;;12.20;8.57;;;2.50;99.90;;;;;;5111875;28;20040;-71
2021/01/08 08:58:07;;;;;;;11.98;8.15;;;2.50;99.90;;;;;;5111366;28;20044;-71
2021/01/08 09:00:36;;;;;;;11.77;8.52;;;2.50;99.90;;;;;;5111071;28;20557;-71
2021/01/08 09:03:15;;;;;;;19.83;12.65;;;2.60;99.90;;;;;;5111919;28;20044;-71
2021/01/08 09:05:44;;;;;;;18.20;13.27;;;2.50;99.90;;;;;;5110832;28;20043;-71
2021/01/08 09:08:16;;;;;;;17.52;11.55;;;2.60;99.90;;;;;;5106438;28;20040;-71
2021/01/08 09:10:52;;;;;;;12.82;9.65;;;2.60;99.90;;;;;;5093242;28;20044;-72
2021/01/08 09:13:31;;;;;;;12.30;8.55;;;2.60;99.90;;;;;;5065571;28;20040;-71
2021/01/08 09:16:04;;;;;;;11.52;8.70;;;2.70;99.90;;;;;;5065678;28;20052;-71
2021/01/08 09:18:37;;;;;;;9.30;7.95;;;2.80;99.90;;;;;;5067540;28;20048;-71
2021/01/08 09:21:12;;;;;;;10.32;8.05;;;2.80;99.90;;;;;;5061391;28;20124;-71
2021/01/08 09:23:42;;;;;;;10.98;7.07;;;2.80;99.90;;;;;;5056336;28;20049;-70
2021/01/08 09:26:09;;;;;;;8.27;6.55;;;2.80;99.90;;;;;;5067718;28;20436;-70
2021/01/08 09:28:43;;;;;;;7.18;5.32;;;2.80;99.90;;;;;;5059734;28;20044;-70
2021/01/08 09:31:10;;;;;;;7.40;5.75;;;2.80;99.90;;;;;;5066428;28;20048;-70
2021/01/08 09:33:36;;;;;;;;;;;2.90;99.90;;;;;;5056174;28;20347;-70
2021/01/08 09:36:04;;;;;;;7.72;6.00;;;2.90;99.90;;;;;;5068486;28;19921;-70
2021/01/08 09:38:33;;;;;;;6.85;6.07;;;2.90;99.90;;;;;;5058721;28;20032;-70
2021/01/08 09:41:00;;;;;;;5.55;4.70;;;2.90;99.90;;;;;;5066486;28;20040;-70
2021/01/08 09:43:26;;;;;;;5.50;4.90;;;3.10;99.90;;;;;;5073108;28;20468;-70
2021/01/08 09:46:05;;;;;;;5.18;4.60;;;3.10;99.90;;;;;;5062642;28;20045;-70
2021/01/08 09:48:34;;;;;;;5.15;4.53;;;3.20;99.90;;;;;;5066931;28;20076;-72
2021/01/08 09:51:05;;;;;;;7.28;6.50;;;3.10;99.90;;;;;;5066132;28;20482;-70
2021/01/08 09:53:34;;;;;;;8.07;7.28;;;3.10;99.90;;;;;;5068861;28;20500;-71
2021/01/08 09:56:12;;;;;;;7.43;6.40;;;3.10;99.90;;;;;;5073467;28;20507;-71
2021/01/08 09:58:38;;;;;;;6.80;5.70;;;3.20;99.90;;;;;;5065026;28;20070;-70
2021/01/08 10:01:06;;;;;;;5.18;4.63;;;3.30;99.90;;;;;;5068564;28;20950;-71
2021/01/08 10:03:32;;;;;;;4.95;4.40;;;3.30;99.90;;;;;;5065465;28;20477;-72
2021/01/08 10:06:03;;;;;;;6.10;4.50;;;3.40;99.90;;;;;;5070643;28;20050;-71
2021/01/08 10:08:30;;;;;;;7.50;4.95;;;3.30;99.90;;;;;;5067860;28;20051;-72
2021/01/08 10:10:58;;;;;;;5.75;4.68;;;3.40;99.90;;;;;;5077647;27;20040;-73
2021/01/08 10:13:25;;;;;;;5.45;4.28;;;3.30;99.90;;;;;;5107603;27;20039;-73
2021/01/08 10:15:54;;;;;;;6.68;4.93;;;3.30;99.90;;;;;;5111205;27;20044;-71
2021/01/08 10:18:26;;;;;;;8.05;5.20;;;3.30;99.90;;;;;;5110203;27;20048;-71
2021/01/08 10:20:53;;;;;;;5.75;5.22;;;3.30;99.90;;;;;;5114365;27;20043;-73
2021/01/08 10:23:25;;;;;;;6.53;4.90;;;3.30;99.90;;;;;;5108954;27;20040;-71
2021/01/08 10:25:54;;;;;;;5.22;4.72;;;3.30;99.90;;;;;;5097094;28;20119;-73
2021/01/08 10:28:24;;;;;;;6.40;4.72;;;3.30;99.90;;;;;;5108436;28;20046;-72
2021/01/08 10:30:51;;;;;;;6.25;4.55;;;3.30;99.90;;;;;;5099582;28;20185;-72
2021/01/08 10:33:21;;;;;;;5.22;4.72;;;3.30;99.90;;;;;;5099697;28;20097;-71
2021/01/08 10:35:50;;;;;;;5.53;4.03;;;3.40;99.90;;;;;;5102537;28;20073;-73
2021/01/08 10:38:17;;;;;;;5.68;5.03;;;3.40;99.90;;;;;;5096865;28;20043;-70
2021/01/08 10:40:44;;;;;;;6.55;4.97;;;3.40;99.90;;;;;;5097012;28;20063;-71
2021/01/08 10:43:11;;;;;;;6.43;4.85;;;3.50;99.90;;;;;;5098517;28;20481;-72
2021/01/08 10:45:39;;;;;;;8.60;6.47;;;3.40;99.90;;;;;;5101908;28;20097;-68
2021/01/08 10:48:06;;;;;;;6.03;4.28;;;3.50;99.90;;;;;;5099134;28;20066;-69
2021/01/08 10:50:35;;;;;;;8.25;5.97;;;3.50;99.90;;;;;;5107413;28;20040;-69
2021/01/08 10:53:02;;;;;;;7.32;4.93;;;3.70;99.90;;;;;;5106450;28;20044;-70
2021/01/08 10:55:29;;;;;;;5.38;4.45;;;3.80;99.90;;;;;;5098024;28;20040;-69
2021/01/08 10:57:56;;;;;;;6.95;4.65;;;3.80;99.90;;;;;;5096790;28;20168;-69
2021/01/08 11:00:23;;;;;;;5.45;4.80;;;3.80;99.90;;;;;;5092935;28;20047;-74
2021/01/08 11:02:51;;;;;;;5.30;4.75;;;3.70;99.90;;;;;;5093628;28;20378;-68
2021/01/08 11:05:18;;;;;;;4.80;4.35;;;3.60;99.90;;;;;;5099927;28;20039;-70
2021/01/08 11:07:45;;;;;;;7.57;5.53;;;3.60;99.90;;;;;;5103178;28;20047;-70
2021/01/08 11:10:13;;;;;;;10.63;6.43;;;3.70;99.90;;;;;;5092609;28;20448;-70
2021/01/08 11:12:39;;;;;;;6.57;4.88;;;3.70;99.90;;;;;;5091174;28;20048;-69
2021/01/08 11:15:07;;;;;;;4.90;4.50;;;3.60;99.90;;;;;;5094478;28;20126;-68
2021/01/08 11:17:33;;;;;;;4.78;4.15;;;3.50;99.90;;;;;;5104727;28;20036;-69
2021/01/08 11:20:00;;;;;;;;;;;3.60;99.90;;;;;;5102315;28;20564;-69
2021/01/08 11:22:28;;;;;;;5.97;5.10;;;3.70;99.90;;;;;;5100835;28;19923;-69
2021/01/08 11:24:55;;;;;;;8.27;5.68;;;3.70;99.90;;;;;;5099074;27;20096;-69
2021/01/08 11:27:21;;;;;;;8.48;5.70;;;3.80;99.90;;;;;;5092228;28;20066;-69
2021/01/08 11:29:48;;;;;;;5.18;4.10;;;3.80;99.90;;;;;;5106006;28;20403;-72
2021/01/08 11:32:15;;;;;;;4.40;3.97;;;3.70;99.90;;;;;;5092885;28;20061;-69
2021/01/08 11:34:42;;;;;;;6.28;5.22;;;3.70;99.90;;;;;;5101878;27;20376;-69
2021/01/08 11:37:10;;;;;;;4.25;3.85;;;3.60;99.90;;;;;;5102709;27;20407;-68
2021/01/08 11:39:36;;;;;;;4.63;4.18;;;3.60;99.90;;;;;;5112497;27;20163;-69
2021/01/08 11:42:03;;;;;;;4.85;4.18;;;3.60;99.90;;;;;;5097988;27;20085;-69
2021/01/08 11:44:30;;;;;;;4.45;4.05;;;3.50;99.90;;;;;;5097674;27;20142;-68
2021/01/08 11:46:57;;;;;;;6.20;5.25;;;3.50;99.90;;;;;;5104386;27;20044;-69
2021/01/08 11:49:25;;;;;;;5.10;4.60;;;3.50;99.90;;;;;;5113599;27;20154;-73
2021/01/08 11:51:56;;;;;;;4.05;3.65;;;3.60;99.90;;;;;;5104719;28;20066;-69
2021/01/08 11:54:24;;;;;;;4.43;4.03;;;3.60;99.90;;;;;;5105628;28;20115;-71
2021/01/08 11:56:50;;;;;;;4.53;4.13;;;3.60;99.90;;;;;;5108242;28;20134;-70
2021/01/08 11:59:17;;;;;;;4.32;3.85;;;3.60;99.90;;;;;;5111875;28;20311;-69
2021/01/08 12:01:43;;;;;;;;;;;3.80;99.90;;;;;;5103757;28;20248;-69
2021/01/08 12:04:10;;;;;;;4.10;3.70;;;3.90;99.90;;;;;;5103429;28;20363;-68
2021/01/08 12:06:38;;;;;;;19.75;11.15;;;4.30;99.90;;;;;;5108347;28;20032;-68
2021/01/08 12:09:09;;;;;;;5.32;4.82;;;4.40;99.90;;;;;;5100337;28;20081;-69
2021/01/08 12:11:38;;;;;;;3.10;2.90;;;4.40;99.90;;;;;;5094740;28;20134;-69
2021/01/08 12:14:04;;;;;;;4.60;3.92;;;4.30;99.90;;;;;;5104817;28;20039;-69
2021/01/08 12:16:32;;;;;;;4.38;3.08;;;4.20;99.90;;;;;;5106962;28;20047;-69
2021/01/08 12:19:00;;;;;;;5.72;4.43;;;4.20;99.90;;;;;;5104632;28;20031;-69
2021/01/08 12:21:28;;;;;;;6.32;4.32;;;4.10;99.90;;;;;;5109768;28;20507;-73
2021/01/08 12:23:55;;;;;;;10.63;6.72;;;4.10;99.90;;;;;;5098451;28;20047;-69
2021/01/08 12:26:24;;;;;;;4.80;3.70;;;4.20;99.90;;;;;;5110495;28;20115;-69
2021/01/08 12:28:52;;;;;;;6.03;5.43;;;4.00;99.90;;;;;;5107975;28;20074;-69
2021/01/08 12:31:25;;;;;;;9.20;7.05;;;4.00;99.90;;;;;;5103387;28;20043;-69
2021/01/08 12:33:52;;;;;;;9.25;7.03;;;4.10;99.90;;;;;;5108468;28;20043;-68
2021/01/08 12:36:20;;;;;;;17.23;11.52;;;4.00;99.90;;;;;;5104187;28;20039;-69
2021/01/08 12:38:47;;;;;;;10.23;7.55;;;4.00;99.90;;;;;;5108824;28;20122;-68
2021/01/08 12:41:13;;;;;;;;;;;4.00;99.90;;;;;;5108204;28;20123;-69
2021/01/08 12:43:40;;;;;;;7.90;7.10;;;4.00;99.90;;;;;;5106664;28;19946;-70
2021/01/08 12:46:07;;;;;;;15.60;11.88;;;3.80;99.90;;;;;;5106023;28;20048;-69
2021/01/08 12:48:34;;;;;;;4.32;3.92;;;3.80;99.90;;;;;;5104505;28;20119;-69
2021/01/08 12:51:00;;;;;;;4.35;3.95;;;3.80;99.90;;;;;;5110297;28;20048;-70
2021/01/08 12:53:27;;;;;;;7.32;5.95;;;3.80;99.90;;;;;;5095383;28;20049;-70
2021/01/08 12:55:53;;;;;;;19.27;17.38;;;3.90;99.90;;;;;;5105674;28;20038;-70
2021/01/08 12:58:20;;;;;;;7.47;6.72;;;3.80;99.90;;;;;;5106448;28;20071;-70
2021/01/08 13:00:48;;;;;;;;;;;3.90;99.90;;;;;;5096690;28;20373;-69